sensor_id;sensor_type;location;lat;lon;timestamp;temperature;humidity
42743;DHT22;28397;44.552;-0.848;2022-09-09T00:02:03;16.20;99.90
42743;DHT22;28397;44.552;-0.848;2022-09-09T00:04:35;16.20;99.90
42743;DHT22;28397;44.552;-0.848;2022-09-09T00:07:21;16.30;99.90
42743;DHT22;28397;44.552;-0.848;2022-09-09T00:14:59;16.40;99.90
42743;DHT22;28397;44.552;-0.848;2022-09-09T00:23:34;16.40;99.90
42743;DHT22;28397;44.552;-0.848;2022-09-09T00:28:50;16.50;99.90
42743;DHT22;28397;44.552;-0.848;2022-09-09T00:31:26;16.40;99.90
42743;DHT22;28397;44.552;-0.848;2022-09-09T00:33:53;16.40;99.90
42743;DHT22;28397;44.552;-0.848;2022-09-09T00:36:24;16.40;99.90
42743;DHT22;28397;44.552;-0.848;2022-09-09T00:38:56;16.40;99.90
42743;DHT22;28397;44.552;-0.848;2022-09-09T00:44:21;16.40;99.90
42743;DHT22;28397;44.552;-0.848;2022-09-09T00:49:48;16.20;99.90
42743;DHT22;28397;44.552;-0.848;2022-09-09T00:57:41;16.00;99.90
42743;DHT22;28397;44.552;-0.848;2022-09-09T01:00:31;15.70;99.90
42743;DHT22;28397;44.552;-0.848;2022-09-09T01:09:02;15.60;99.90
42743;DHT22;28397;44.552;-0.848;2022-09-09T01:27:54;15.80;99.90
42743;DHT22;28397;44.552;-0.848;2022-09-09T01:30:21;15.90;99.90
42743;DHT22;28397;44.552;-0.848;2022-09-09T01:32:55;15.90;99.90
42743;DHT22;28397;44.552;-0.848;2022-09-09T01:35:47;15.90;99.90
42743;DHT22;28397;44.552;-0.848;2022-09-09T01:38:14;15.70;99.90
42743;DHT22;28397;44.552;-0.848;2022-09-09T01:40:41;15.70;99.90
42743;DHT22;28397;44.552;-0.848;2022-09-09T01:43:06;15.70;99.90
42743;DHT22;28397;44.552;-0.848;2022-09-09T01:45:33;15.60;99.90
42743;DHT22;28397;44.552;-0.848;2022-09-09T01:47:59;15.50;99.90
42743;DHT22;28397;44.552;-0.848;2022-09-09T01:50:26;15.40;99.90
42743;DHT22;28397;44.552;-0.848;2022-09-09T01:52:58;15.50;99.90
42743;DHT22;28397;44.552;-0.848;2022-09-09T01:56:00;15.30;99.90
42743;DHT22;28397;44.552;-0.848;2022-09-09T02:03:52;15.40;99.90
42743;DHT22;28397;44.552;-0.848;2022-09-09T02:06:34;15.30;99.90
42743;DHT22;28397;44.552;-0.848;2022-09-09T02:09:04;15.30;99.90
42743;DHT22;28397;44.552;-0.848;2022-09-09T02:11:31;15.10;99.90
42743;DHT22;28397;44.552;-0.848;2022-09-09T02:14:02;15.00;99.90
42743;DHT22;28397;44.552;-0.848;2022-09-09T02:21:40;14.90;99.90
42743;DHT22;28397;44.552;-0.848;2022-09-09T02:24:09;15.00;99.90
42743;DHT22;28397;44.552;-0.848;2022-09-09T02:26:42;14.90;99.90
42743;DHT22;28397;44.552;-0.848;2022-09-09T02:29:14;14.90;99.90
42743;DHT22;28397;44.552;-0.848;2022-09-09T02:31:44;14.90;99.90
42743;DHT22;28397;44.552;-0.848;2022-09-09T02:34:13;15.10;99.90
42743;DHT22;28397;44.552;-0.848;2022-09-09T02:36:41;15.10;99.90
42743;DHT22;28397;44.552;-0.848;2022-09-09T02:39:10;15.20;99.90
42743;DHT22;28397;44.552;-0.848;2022-09-09T02:41:38;15.30;99.90
42743;DHT22;28397;44.552;-0.848;2022-09-09T02:44:12;15.40;99.90
42743;DHT22;28397;44.552;-0.848;2022-09-09T02:52:08;15.20;99.90
42743;DHT22;28397;44.552;-0.848;2022-09-09T02:54:40;15.00;99.90
42743;DHT22;28397;44.552;-0.848;2022-09-09T02:57:16;15.20;99.90
42743;DHT22;28397;44.552;-0.848;2022-09-09T02:59:43;15.00;99.90
42743;DHT22;28397;44.552;-0.848;2022-09-09T03:02:10;15.00;99.90
42743;DHT22;28397;44.552;-0.848;2022-09-09T03:04:37;15.00;99.90
42743;DHT22;28397;44.552;-0.848;2022-09-09T03:07:03;15.20;99.90
42743;DHT22;28397;44.552;-0.848;2022-09-09T03:09:29;15.20;99.90
42743;DHT22;28397;44.552;-0.848;2022-09-09T03:11:56;15.40;99.90
42743;DHT22;28397;44.552;-0.848;2022-09-09T03:14:22;15.50;99.90
42743;DHT22;28397;44.552;-0.848;2022-09-09T03:16:51;15.50;99.90
42743;DHT22;28397;44.552;-0.848;2022-09-09T03:19:16;15.50;99.90
42743;DHT22;28397;44.552;-0.848;2022-09-09T03:21:44;15.60;99.90
42743;DHT22;28397;44.552;-0.848;2022-09-09T03:24:10;15.60;99.90
42743;DHT22;28397;44.552;-0.848;2022-09-09T03:26:36;15.80;99.90
42743;DHT22;28397;44.552;-0.848;2022-09-09T03:29:03;15.80;99.90
42743;DHT22;28397;44.552;-0.848;2022-09-09T03:31:35;15.70;99.90
42743;DHT22;28397;44.552;-0.848;2022-09-09T03:34:02;15.60;99.90
42743;DHT22;28397;44.552;-0.848;2022-09-09T03:36:28;15.60;99.90
42743;DHT22;28397;44.552;-0.848;2022-09-09T03:38:55;15.70;99.90
42743;DHT22;28397;44.552;-0.848;2022-09-09T03:41:24;15.70;99.90
42743;DHT22;28397;44.552;-0.848;2022-09-09T03:43:51;15.80;99.90
42743;DHT22;28397;44.552;-0.848;2022-09-09T03:46:21;15.60;99.90
42743;DHT22;28397;44.552;-0.848;2022-09-09T03:48:47;15.60;99.90
42743;DHT22;28397;44.552;-0.848;2022-09-09T03:51:13;15.50;99.90
42743;DHT22;28397;44.552;-0.848;2022-09-09T03:53:38;15.50;99.90
42743;DHT22;28397;44.552;-0.848;2022-09-09T03:56:05;15.40;99.90
42743;DHT22;28397;44.552;-0.848;2022-09-09T03:58:36;15.50;99.90
42743;DHT22;28397;44.552;-0.848;2022-09-09T04:01:07;15.50;99.90
42743;DHT22;28397;44.552;-0.848;2022-09-09T04:03:38;15.50;99.90
42743;DHT22;28397;44.552;-0.848;2022-09-09T04:06:06;15.40;99.90
42743;DHT22;28397;44.552;-0.848;2022-09-09T04:08:33;15.50;99.90
42743;DHT22;28397;44.552;-0.848;2022-09-09T04:11:01;15.40;99.90
42743;DHT22;28397;44.552;-0.848;2022-09-09T04:13:32;15.40;99.90
42743;DHT22;28397;44.552;-0.848;2022-09-09T04:15:58;15.50;99.90
42743;DHT22;28397;44.552;-0.848;2022-09-09T04:18:25;15.60;99.90
42743;DHT22;28397;44.552;-0.848;2022-09-09T04:20:52;15.60;99.90
42743;DHT22;28397;44.552;-0.848;2022-09-09T04:23:19;15.50;99.90
42743;DHT22;28397;44.552;-0.848;2022-09-09T04:25:50;15.50;99.90
42743;DHT22;28397;44.552;-0.848;2022-09-09T04:28:17;15.50;99.90
42743;DHT22;28397;44.552;-0.848;2022-09-09T04:30:44;15.50;99.90
42743;DHT22;28397;44.552;-0.848;2022-09-09T04:33:11;15.30;99.90
42743;DHT22;28397;44.552;-0.848;2022-09-09T04:35:37;15.30;99.90
42743;DHT22;28397;44.552;-0.848;2022-09-09T04:38:04;15.40;99.90
42743;DHT22;28397;44.552;-0.848;2022-09-09T04:40:30;15.40;99.90
42743;DHT22;28397;44.552;-0.848;2022-09-09T04:43:03;15.50;99.90
42743;DHT22;28397;44.552;-0.848;2022-09-09T04:45:31;15.60;99.90
42743;DHT22;28397;44.552;-0.848;2022-09-09T04:47:57;15.60;99.90
42743;DHT22;28397;44.552;-0.848;2022-09-09T04:50:23;15.60;99.90
42743;DHT22;28397;44.552;-0.848;2022-09-09T04:52:49;15.60;99.90
42743;DHT22;28397;44.552;-0.848;2022-09-09T04:55:14;15.70;99.90
42743;DHT22;28397;44.552;-0.848;2022-09-09T04:57:40;15.80;99.90
42743;DHT22;28397;44.552;-0.848;2022-09-09T05:00:07;15.90;99.90
42743;DHT22;28397;44.552;-0.848;2022-09-09T05:02:36;15.80;99.90
42743;DHT22;28397;44.552;-0.848;2022-09-09T05:05:02;15.90;99.90
42743;DHT22;28397;44.552;-0.848;2022-09-09T05:07:28;15.90;99.90
42743;DHT22;28397;44.552;-0.848;2022-09-09T05:09:54;16.00;99.90
42743;DHT22;28397;44.552;-0.848;2022-09-09T05:12:20;15.90;99.90
42743;DHT22;28397;44.552;-0.848;2022-09-09T05:14:45;15.90;99.90
42743;DHT22;28397;44.552;-0.848;2022-09-09T05:17:11;15.90;99.90
42743;DHT22;28397;44.552;-0.848;2022-09-09T05:19:38;15.80;99.90
42743;DHT22;28397;44.552;-0.848;2022-09-09T05:22:04;15.80;99.90
42743;DHT22;28397;44.552;-0.848;2022-09-09T05:24:30;15.80;99.90
42743;DHT22;28397;44.552;-0.848;2022-09-09T05:26:58;15.80;99.90
42743;DHT22;28397;44.552;-0.848;2022-09-09T05:29:26;15.80;99.90
42743;DHT22;28397;44.552;-0.848;2022-09-09T05:31:52;15.80;99.90
42743;DHT22;28397;44.552;-0.848;2022-09-09T05:34:18;15.90;99.90
42743;DHT22;28397;44.552;-0.848;2022-09-09T05:36:44;15.80;99.90
42743;DHT22;28397;44.552;-0.848;2022-09-09T05:39:10;15.80;99.90
42743;DHT22;28397;44.552;-0.848;2022-09-09T05:41:37;15.90;99.90
42743;DHT22;28397;44.552;-0.848;2022-09-09T05:44:03;15.90;99.90
42743;DHT22;28397;44.552;-0.848;2022-09-09T05:46:29;15.80;99.90
42743;DHT22;28397;44.552;-0.848;2022-09-09T05:48:55;15.70;99.90
42743;DHT22;28397;44.552;-0.848;2022-09-09T05:51:24;15.60;99.90
42743;DHT22;28397;44.552;-0.848;2022-09-09T05:53:50;15.50;99.90
42743;DHT22;28397;44.552;-0.848;2022-09-09T05:56:21;15.40;99.90
42743;DHT22;28397;44.552;-0.848;2022-09-09T05:58:49;15.60;99.90
42743;DHT22;28397;44.552;-0.848;2022-09-09T06:01:24;15.60;99.90
42743;DHT22;28397;44.552;-0.848;2022-09-09T06:03:50;15.70;99.90
42743;DHT22;28397;44.552;-0.848;2022-09-09T06:06:19;15.50;99.90
42743;DHT22;28397;44.552;-0.848;2022-09-09T06:08:46;15.50;99.90
42743;DHT22;28397;44.552;-0.848;2022-09-09T06:11:23;16.70;99.90
42743;DHT22;28397;44.552;-0.848;2022-09-09T06:13:49;18.30;99.90
42743;DHT22;28397;44.552;-0.848;2022-09-09T06:16:20;18.80;99.90
42743;DHT22;28397;44.552;-0.848;2022-09-09T06:18:48;20.00;99.90
42743;DHT22;28397;44.552;-0.848;2022-09-09T06:21:19;20.00;99.90
42743;DHT22;28397;44.552;-0.848;2022-09-09T06:23:46;21.70;99.90
42743;DHT22;28397;44.552;-0.848;2022-09-09T06:28:40;22.80;99.90
42743;DHT22;28397;44.552;-0.848;2022-09-09T06:31:10;23.00;99.90
42743;DHT22;28397;44.552;-0.848;2022-09-09T06:33:40;22.60;99.90
42743;DHT22;28397;44.552;-0.848;2022-09-09T06:36:11;22.80;99.90
42743;DHT22;28397;44.552;-0.848;2022-09-09T06:38:38;24.40;99.90
42743;DHT22;28397;44.552;-0.848;2022-09-09T06:41:04;25.20;99.90
42743;DHT22;28397;44.552;-0.848;2022-09-09T06:43:31;25.30;99.90
42743;DHT22;28397;44.552;-0.848;2022-09-09T06:48:23;26.30;99.90
42743;DHT22;28397;44.552;-0.848;2022-09-09T06:51:01;27.20;99.90
42743;DHT22;28397;44.552;-0.848;2022-09-09T06:53:27;26.30;99.90
42743;DHT22;28397;44.552;-0.848;2022-09-09T06:55:53;26.80;99.90
42743;DHT22;28397;44.552;-0.848;2022-09-09T06:58:20;27.00;99.90
42743;DHT22;28397;44.552;-0.848;2022-09-09T07:00:47;27.60;99.90
42743;DHT22;28397;44.552;-0.848;2022-09-09T07:03:13;28.30;99.90
42743;DHT22;28397;44.552;-0.848;2022-09-09T07:05:39;27.70;99.90
42743;DHT22;28397;44.552;-0.848;2022-09-09T07:08:05;29.40;99.90
42743;DHT22;28397;44.552;-0.848;2022-09-09T07:10:31;31.90;95.90
42743;DHT22;28397;44.552;-0.848;2022-09-09T07:12:57;31.20;94.30
42743;DHT22;28397;44.552;-0.848;2022-09-09T07:15:23;30.60;96.10
42743;DHT22;28397;44.552;-0.848;2022-09-09T07:17:49;31.30;94.40
42743;DHT22;28397;44.552;-0.848;2022-09-09T07:20:15;31.10;95.00
42743;DHT22;28397;44.552;-0.848;2022-09-09T07:22:41;30.20;95.60
42743;DHT22;28397;44.552;-0.848;2022-09-09T07:25:07;31.80;93.90
42743;DHT22;28397;44.552;-0.848;2022-09-09T07:27:33;34.10;91.60
42743;DHT22;28397;44.552;-0.848;2022-09-09T07:29:59;34.70;91.20
42743;DHT22;28397;44.552;-0.848;2022-09-09T07:32:24;35.10;89.80
42743;DHT22;28397;44.552;-0.848;2022-09-09T07:34:51;35.70;88.10
42743;DHT22;28397;44.552;-0.848;2022-09-09T07:37:17;36.50;85.70
42743;DHT22;28397;44.552;-0.848;2022-09-09T07:39:43;35.40;84.10
42743;DHT22;28397;44.552;-0.848;2022-09-09T07:42:10;36.00;84.30
42743;DHT22;28397;44.552;-0.848;2022-09-09T07:44:38;35.80;84.60
42743;DHT22;28397;44.552;-0.848;2022-09-09T07:47:05;36.40;82.70
42743;DHT22;28397;44.552;-0.848;2022-09-09T07:49:31;36.60;81.80
42743;DHT22;28397;44.552;-0.848;2022-09-09T07:51:58;36.70;81.10
42743;DHT22;28397;44.552;-0.848;2022-09-09T07:54:24;36.10;80.60
42743;DHT22;28397;44.552;-0.848;2022-09-09T07:56:51;36.60;81.10
42743;DHT22;28397;44.552;-0.848;2022-09-09T07:59:17;37.00;80.60
42743;DHT22;28397;44.552;-0.848;2022-09-09T08:01:46;37.30;78.60
42743;DHT22;28397;44.552;-0.848;2022-09-09T08:04:22;36.30;78.80
42743;DHT22;28397;44.552;-0.848;2022-09-09T08:06:55;32.00;85.60
42743;DHT22;28397;44.552;-0.848;2022-09-09T08:09:22;30.50;87.60
42743;DHT22;28397;44.552;-0.848;2022-09-09T08:11:50;32.10;86.60
42743;DHT22;28397;44.552;-0.848;2022-09-09T08:14:16;35.10;83.80
42743;DHT22;28397;44.552;-0.848;2022-09-09T08:16:45;36.50;79.30
42743;DHT22;28397;44.552;-0.848;2022-09-09T08:19:12;36.80;79.30
42743;DHT22;28397;44.552;-0.848;2022-09-09T08:21:39;37.10;79.00
42743;DHT22;28397;44.552;-0.848;2022-09-09T08:24:06;37.60;78.10
42743;DHT22;28397;44.552;-0.848;2022-09-09T08:26:34;37.20;76.20
42743;DHT22;28397;44.552;-0.848;2022-09-09T08:29:02;37.00;76.30
42743;DHT22;28397;44.552;-0.848;2022-09-09T08:31:33;37.90;75.20
42743;DHT22;28397;44.552;-0.848;2022-09-09T08:34:00;36.90;76.60
42743;DHT22;28397;44.552;-0.848;2022-09-09T08:36:30;33.90;80.10
42743;DHT22;28397;44.552;-0.848;2022-09-09T08:38:57;33.70;81.90
42743;DHT22;28397;44.552;-0.848;2022-09-09T08:52:18;29.10;88.30
42743;DHT22;28397;44.552;-0.848;2022-09-09T08:54:46;31.00;88.30
42743;DHT22;28397;44.552;-0.848;2022-09-09T08:57:20;33.40;83.80
42743;DHT22;28397;44.552;-0.848;2022-09-09T08:59:47;34.30;79.60
42743;DHT22;28397;44.552;-0.848;2022-09-09T09:05:09;35.70;78.00
42743;DHT22;28397;44.552;-0.848;2022-09-09T09:07:49;34.60;79.20
42743;DHT22;28397;44.552;-0.848;2022-09-09T09:10:37;34.20;78.70
42743;DHT22;28397;44.552;-0.848;2022-09-09T09:13:15;34.20;78.40
42743;DHT22;28397;44.552;-0.848;2022-09-09T09:15:42;35.20;76.90
42743;DHT22;28397;44.552;-0.848;2022-09-09T09:18:12;35.70;76.20
42743;DHT22;28397;44.552;-0.848;2022-09-09T09:21:02;36.80;76.10
42743;DHT22;28397;44.552;-0.848;2022-09-09T09:23:38;35.40;75.60
42743;DHT22;28397;44.552;-0.848;2022-09-09T09:26:07;36.40;77.20
42743;DHT22;28397;44.552;-0.848;2022-09-09T09:28:35;35.90;75.60
42743;DHT22;28397;44.552;-0.848;2022-09-09T09:31:06;35.00;76.00
42743;DHT22;28397;44.552;-0.848;2022-09-09T09:33:43;34.60;76.80
42743;DHT22;28397;44.552;-0.848;2022-09-09T09:36:12;35.00;78.10
42743;DHT22;28397;44.552;-0.848;2022-09-09T09:38:55;36.40;76.70
42743;DHT22;28397;44.552;-0.848;2022-09-09T09:41:34;35.20;75.40
42743;DHT22;28397;44.552;-0.848;2022-09-09T09:44:01;33.70;78.80
42743;DHT22;28397;44.552;-0.848;2022-09-09T09:46:28;34.30;77.30
42743;DHT22;28397;44.552;-0.848;2022-09-09T09:49:02;33.20;78.80
42743;DHT22;28397;44.552;-0.848;2022-09-09T09:51:30;32.70;80.10
42743;DHT22;28397;44.552;-0.848;2022-09-09T09:56:43;32.20;81.00
42743;DHT22;28397;44.552;-0.848;2022-09-09T10:01:54;30.80;81.90
42743;DHT22;28397;44.552;-0.848;2022-09-09T10:04:23;30.00;83.70
42743;DHT22;28397;44.552;-0.848;2022-09-09T10:06:50;30.40;83.20
42743;DHT22;28397;44.552;-0.848;2022-09-09T10:09:27;29.70;85.30
42743;DHT22;28397;44.552;-0.848;2022-09-09T10:12:14;28.70;87.70
42743;DHT22;28397;44.552;-0.848;2022-09-09T10:22:49;30.80;85.30
42743;DHT22;28397;44.552;-0.848;2022-09-09T10:25:35;30.20;85.50
42743;DHT22;28397;44.552;-0.848;2022-09-09T10:30:58;29.00;87.50
42743;DHT22;28397;44.552;-0.848;2022-09-09T10:38:48;28.80;86.10
42743;DHT22;28397;44.552;-0.848;2022-09-09T10:44:28;29.70;84.30
42743;DHT22;28397;44.552;-0.848;2022-09-09T10:53:02;31.20;82.90
42743;DHT22;28397;44.552;-0.848;2022-09-09T10:55:39;30.90;83.50
42743;DHT22;28397;44.552;-0.848;2022-09-09T10:58:30;29.40;82.70
42743;DHT22;28397;44.552;-0.848;2022-09-09T11:01:03;28.10;86.10
42743;DHT22;28397;44.552;-0.848;2022-09-09T11:03:34;28.20;85.90
42743;DHT22;28397;44.552;-0.848;2022-09-09T11:06:06;27.90;86.70
42743;DHT22;28397;44.552;-0.848;2022-09-09T11:08:35;27.50;87.60
42743;DHT22;28397;44.552;-0.848;2022-09-09T11:13:47;27.90;87.20
42743;DHT22;28397;44.552;-0.848;2022-09-09T11:16:29;28.90;85.70
42743;DHT22;28397;44.552;-0.848;2022-09-09T11:19:02;28.00;87.30
42743;DHT22;28397;44.552;-0.848;2022-09-09T11:21:36;27.70;88.30
42743;DHT22;28397;44.552;-0.848;2022-09-09T11:24:06;26.50;90.50
42743;DHT22;28397;44.552;-0.848;2022-09-09T11:26:41;27.70;89.80
42743;DHT22;28397;44.552;-0.848;2022-09-09T11:37:50;27.20;90.90
42743;DHT22;28397;44.552;-0.848;2022-09-09T11:40:19;27.50;90.30
42743;DHT22;28397;44.552;-0.848;2022-09-09T11:42:48;27.10;89.30
42743;DHT22;28397;44.552;-0.848;2022-09-09T11:45:24;27.30;88.10
42743;DHT22;28397;44.552;-0.848;2022-09-09T11:48:02;27.10;88.10
42743;DHT22;28397;44.552;-0.848;2022-09-09T11:50:34;26.60;88.70
42743;DHT22;28397;44.552;-0.848;2022-09-09T11:55:39;27.40;88.10
42743;DHT22;28397;44.552;-0.848;2022-09-09T12:03:04;26.40;88.50
42743;DHT22;28397;44.552;-0.848;2022-09-09T12:05:46;26.60;89.20
42743;DHT22;28397;44.552;-0.848;2022-09-09T12:08:26;27.50;88.70
42743;DHT22;28397;44.552;-0.848;2022-09-09T12:10:56;27.70;88.20
42743;DHT22;28397;44.552;-0.848;2022-09-09T12:13:24;27.40;89.20
42743;DHT22;28397;44.552;-0.848;2022-09-09T12:15:52;26.80;89.60
42743;DHT22;28397;44.552;-0.848;2022-09-09T12:18:38;26.20;90.40
42743;DHT22;28397;44.552;-0.848;2022-09-09T12:24:10;26.00;90.40
42743;DHT22;28397;44.552;-0.848;2022-09-09T12:29:28;26.00;90.20
42743;DHT22;28397;44.552;-0.848;2022-09-09T12:34:43;26.20;90.10
42743;DHT22;28397;44.552;-0.848;2022-09-09T12:40:03;25.70;91.00
42743;DHT22;28397;44.552;-0.848;2022-09-09T12:42:30;25.80;91.10
42743;DHT22;28397;44.552;-0.848;2022-09-09T12:45:03;25.90;90.70
42743;DHT22;28397;44.552;-0.848;2022-09-09T12:48:18;26.30;90.60
42743;DHT22;28397;44.552;-0.848;2022-09-09T12:50:43;26.10;89.00
42743;DHT22;28397;44.552;-0.848;2022-09-09T12:53:34;26.30;90.20
42743;DHT22;28397;44.552;-0.848;2022-09-09T12:56:03;26.20;90.10
42743;DHT22;28397;44.552;-0.848;2022-09-09T12:58:30;26.60;89.50
42743;DHT22;28397;44.552;-0.848;2022-09-09T13:01:01;26.40;88.20
42743;DHT22;28397;44.552;-0.848;2022-09-09T13:03:28;26.40;89.20
42743;DHT22;28397;44.552;-0.848;2022-09-09T13:05:58;26.50;88.90
42743;DHT22;28397;44.552;-0.848;2022-09-09T13:08:25;26.40;88.80
42743;DHT22;28397;44.552;-0.848;2022-09-09T13:11:02;26.30;88.00
42743;DHT22;28397;44.552;-0.848;2022-09-09T13:13:35;26.20;87.90
42743;DHT22;28397;44.552;-0.848;2022-09-09T13:16:02;25.90;89.50
42743;DHT22;28397;44.552;-0.848;2022-09-09T13:18:33;25.70;89.80
42743;DHT22;28397;44.552;-0.848;2022-09-09T13:20:59;26.00;89.30
42743;DHT22;28397;44.552;-0.848;2022-09-09T13:23:31;26.00;88.40
42743;DHT22;28397;44.552;-0.848;2022-09-09T13:25:59;25.50;89.10
42743;DHT22;28397;44.552;-0.848;2022-09-09T13:28:28;25.60;89.90
42743;DHT22;28397;44.552;-0.848;2022-09-09T13:31:02;26.00;90.20
42743;DHT22;28397;44.552;-0.848;2022-09-09T13:33:37;26.00;89.70
42743;DHT22;28397;44.552;-0.848;2022-09-09T13:36:09;25.80;90.10
42743;DHT22;28397;44.552;-0.848;2022-09-09T13:38:40;26.20;90.50
42743;DHT22;28397;44.552;-0.848;2022-09-09T13:41:45;26.30;89.90
42743;DHT22;28397;44.552;-0.848;2022-09-09T13:44:29;26.00;91.60
42743;DHT22;28397;44.552;-0.848;2022-09-09T13:47:04;25.60;92.30
42743;DHT22;28397;44.552;-0.848;2022-09-09T13:49:31;25.00;93.30
42743;DHT22;28397;44.552;-0.848;2022-09-09T13:52:10;25.00;93.30
42743;DHT22;28397;44.552;-0.848;2022-09-09T13:54:37;24.60;93.50
42743;DHT22;28397;44.552;-0.848;2022-09-09T13:57:02;25.00;93.10
42743;DHT22;28397;44.552;-0.848;2022-09-09T13:59:30;24.80;93.00
42743;DHT22;28397;44.552;-0.848;2022-09-09T14:01:57;24.90;93.20
42743;DHT22;28397;44.552;-0.848;2022-09-09T14:04:23;25.10;92.60
42743;DHT22;28397;44.552;-0.848;2022-09-09T14:06:49;24.90;92.70
42743;DHT22;28397;44.552;-0.848;2022-09-09T14:09:17;24.60;93.30
42743;DHT22;28397;44.552;-0.848;2022-09-09T14:11:44;25.10;92.50
42743;DHT22;28397;44.552;-0.848;2022-09-09T14:14:11;25.20;92.00
42743;DHT22;28397;44.552;-0.848;2022-09-09T14:16:36;25.30;91.80
42743;DHT22;28397;44.552;-0.848;2022-09-09T14:19:03;25.30;91.30
42743;DHT22;28397;44.552;-0.848;2022-09-09T14:21:29;25.20;91.70
42743;DHT22;28397;44.552;-0.848;2022-09-09T14:23:54;25.20;91.60
42743;DHT22;28397;44.552;-0.848;2022-09-09T14:26:21;25.20;91.70
42743;DHT22;28397;44.552;-0.848;2022-09-09T14:28:47;25.00;91.70
42743;DHT22;28397;44.552;-0.848;2022-09-09T14:31:13;25.50;92.10
42743;DHT22;28397;44.552;-0.848;2022-09-09T14:33:40;25.60;91.30
42743;DHT22;28397;44.552;-0.848;2022-09-09T14:36:06;25.60;91.70
42743;DHT22;28397;44.552;-0.848;2022-09-09T14:38:37;25.70;91.50
42743;DHT22;28397;44.552;-0.848;2022-09-09T14:41:09;25.70;91.70
42743;DHT22;28397;44.552;-0.848;2022-09-09T14:43:37;25.00;92.40
42743;DHT22;28397;44.552;-0.848;2022-09-09T14:46:10;24.90;93.00
42743;DHT22;28397;44.552;-0.848;2022-09-09T14:48:36;25.00;92.10
42743;DHT22;28397;44.552;-0.848;2022-09-09T14:51:11;25.00;92.50
42743;DHT22;28397;44.552;-0.848;2022-09-09T14:53:39;25.00;92.40
42743;DHT22;28397;44.552;-0.848;2022-09-09T14:56:06;25.20;92.20
42743;DHT22;28397;44.552;-0.848;2022-09-09T14:58:32;25.40;92.00
42743;DHT22;28397;44.552;-0.848;2022-09-09T15:01:05;25.40;91.60
42743;DHT22;28397;44.552;-0.848;2022-09-09T15:03:31;25.30;92.00
42743;DHT22;28397;44.552;-0.848;2022-09-09T15:05:57;25.30;91.30
42743;DHT22;28397;44.552;-0.848;2022-09-09T15:08:24;24.80;91.60
42743;DHT22;28397;44.552;-0.848;2022-09-09T15:10:50;24.70;91.80
42743;DHT22;28397;44.552;-0.848;2022-09-09T15:13:16;24.80;91.50
42743;DHT22;28397;44.552;-0.848;2022-09-09T15:15:44;24.80;92.20
42743;DHT22;28397;44.552;-0.848;2022-09-09T15:18:10;25.30;92.10
42743;DHT22;28397;44.552;-0.848;2022-09-09T15:20:35;25.20;91.80
42743;DHT22;28397;44.552;-0.848;2022-09-09T15:23:03;25.00;91.90
42743;DHT22;28397;44.552;-0.848;2022-09-09T15:25:28;25.00;91.60
42743;DHT22;28397;44.552;-0.848;2022-09-09T15:27:54;24.90;91.60
42743;DHT22;28397;44.552;-0.848;2022-09-09T15:30:21;24.60;91.80
42743;DHT22;28397;44.552;-0.848;2022-09-09T15:32:47;24.60;92.00
42743;DHT22;28397;44.552;-0.848;2022-09-09T15:35:12;24.50;92.10
42743;DHT22;28397;44.552;-0.848;2022-09-09T15:37:38;24.40;92.50
42743;DHT22;28397;44.552;-0.848;2022-09-09T15:40:04;24.00;92.90
42743;DHT22;28397;44.552;-0.848;2022-09-09T15:42:30;24.00;93.70
42743;DHT22;28397;44.552;-0.848;2022-09-09T15:44:56;24.10;93.50
42743;DHT22;28397;44.552;-0.848;2022-09-09T15:47:22;24.20;93.40
42743;DHT22;28397;44.552;-0.848;2022-09-09T15:49:48;24.30;93.30
42743;DHT22;28397;44.552;-0.848;2022-09-09T15:52:13;24.20;93.60
42743;DHT22;28397;44.552;-0.848;2022-09-09T15:54:39;24.30;93.50
42743;DHT22;28397;44.552;-0.848;2022-09-09T15:57:06;24.10;93.40
42743;DHT22;28397;44.552;-0.848;2022-09-09T15:59:32;24.00;94.20
42743;DHT22;28397;44.552;-0.848;2022-09-09T16:01:59;23.90;95.30
42743;DHT22;28397;44.552;-0.848;2022-09-09T16:04:26;23.50;96.40
42743;DHT22;28397;44.552;-0.848;2022-09-09T16:06:53;23.70;96.60
42743;DHT22;28397;44.552;-0.848;2022-09-09T16:09:20;23.70;96.60
42743;DHT22;28397;44.552;-0.848;2022-09-09T16:11:46;23.60;96.60
42743;DHT22;28397;44.552;-0.848;2022-09-09T16:14:14;23.40;96.60
42743;DHT22;28397;44.552;-0.848;2022-09-09T16:16:41;23.40;96.60
42743;DHT22;28397;44.552;-0.848;2022-09-09T16:19:09;23.20;96.60
42743;DHT22;28397;44.552;-0.848;2022-09-09T16:21:38;23.10;96.80
42743;DHT22;28397;44.552;-0.848;2022-09-09T16:24:06;23.00;97.00
42743;DHT22;28397;44.552;-0.848;2022-09-09T16:26:34;23.00;97.20
42743;DHT22;28397;44.552;-0.848;2022-09-09T16:29:01;23.00;97.10
42743;DHT22;28397;44.552;-0.848;2022-09-09T16:31:29;23.00;97.30
42743;DHT22;28397;44.552;-0.848;2022-09-09T16:33:55;22.80;97.90
42743;DHT22;28397;44.552;-0.848;2022-09-09T16:36:23;22.90;98.10
42743;DHT22;28397;44.552;-0.848;2022-09-09T16:38:53;23.10;97.90
42743;DHT22;28397;44.552;-0.848;2022-09-09T16:41:20;23.10;98.20
42743;DHT22;28397;44.552;-0.848;2022-09-09T16:43:46;23.40;98.10
42743;DHT22;28397;44.552;-0.848;2022-09-09T16:46:14;23.40;97.10
42743;DHT22;28397;44.552;-0.848;2022-09-09T16:48:42;23.40;96.40
42743;DHT22;28397;44.552;-0.848;2022-09-09T16:51:20;23.10;96.70
42743;DHT22;28397;44.552;-0.848;2022-09-09T16:53:46;23.30;96.70
42743;DHT22;28397;44.552;-0.848;2022-09-09T16:56:24;23.30;96.60
42743;DHT22;28397;44.552;-0.848;2022-09-09T16:58:58;23.10;96.30
42743;DHT22;28397;44.552;-0.848;2022-09-09T17:01:26;23.30;96.40
42743;DHT22;28397;44.552;-0.848;2022-09-09T17:03:56;23.00;96.60
42743;DHT22;28397;44.552;-0.848;2022-09-09T17:06:22;23.00;96.70
42743;DHT22;28397;44.552;-0.848;2022-09-09T17:08:54;22.90;96.90
42743;DHT22;28397;44.552;-0.848;2022-09-09T17:11:20;22.60;97.40
42743;DHT22;28397;44.552;-0.848;2022-09-09T17:13:46;22.60;97.30
42743;DHT22;28397;44.552;-0.848;2022-09-09T17:16:15;22.30;97.90
42743;DHT22;28397;44.552;-0.848;2022-09-09T17:18:41;22.30;98.10
42743;DHT22;28397;44.552;-0.848;2022-09-09T17:21:13;22.30;97.90
42743;DHT22;28397;44.552;-0.848;2022-09-09T17:23:40;22.00;98.60
42743;DHT22;28397;44.552;-0.848;2022-09-09T17:26:08;21.80;99.10
42743;DHT22;28397;44.552;-0.848;2022-09-09T17:28:35;21.90;99.30
42743;DHT22;28397;44.552;-0.848;2022-09-09T17:31:02;21.90;99.60
42743;DHT22;28397;44.552;-0.848;2022-09-09T17:33:30;21.90;99.90
42743;DHT22;28397;44.552;-0.848;2022-09-09T17:35:57;21.80;99.90
42743;DHT22;28397;44.552;-0.848;2022-09-09T17:38:25;21.70;99.90
42743;DHT22;28397;44.552;-0.848;2022-09-09T17:41:15;21.60;99.90
42743;DHT22;28397;44.552;-0.848;2022-09-09T17:43:42;21.30;99.90
42743;DHT22;28397;44.552;-0.848;2022-09-09T17:48:47;21.10;99.90
42743;DHT22;28397;44.552;-0.848;2022-09-09T17:51:15;21.00;99.90
42743;DHT22;28397;44.552;-0.848;2022-09-09T17:53:45;20.90;99.90
42743;DHT22;28397;44.552;-0.848;2022-09-09T17:56:14;20.70;99.90